Garcia Miguel — CUGT9 — position and weather

sailwx.info

Track history (hours):
 
Tides and Currents Weather Stations Pressure Air Temp Water Temp Dewpoint Dewpoint Depression Visibility Wind Speed Wind Dir Waves Ship Positions

Garcia Miguel

Last reported at 2016-Jul-25 11:33 UTC. Time now 2016-Jul-25 11:59 UTC.
Position N 37°59' W 010°22'.

Length 20 m.

Type: Fishing. MMSI: 263500286.

Date/timePositionNaut miles runAvg speedWind from/ knotsBaromVisibWave heightAir tempDewpointWater temp
2016-Jul-25 11:33N 37°59' W 010°22'11 7.6
2016-Jul-25 10:07N 38°09' W 010°15'4 7.3
2016-Jul-25 09:33N 38°13' W 010°12'8 7.5
2016-Jul-25 08:33N 38°19' W 010°08'7 7.0
2016-Jul-25 07:32N 38°25' W 010°04'7 7.0
2016-Jul-25 06:33N 38°32' W 009°60'7 7.3
2016-Jul-25 05:33N 38°38' W 009°54'7 6.9
2016-Jul-25 04:33N 38°43' W 009°49'7 7.1
2016-Jul-25 03:32N 38°50' W 009°45'9 7.7
2016-Jul-25 02:18N 38°58' W 009°39'  
2016-Jul-21 00:24N 38°59' W 009°29'6 7.4
2016-Jul-20 23:33N 38°53' W 009°31'8 7.3
2016-Jul-20 22:30N 38°46' W 009°33'7 6.9
2016-Jul-20 21:33N 38°40' W 009°30'7 7.3
2016-Jul-20 20:33N 38°35' W 009°23'7 6.9
2016-Jul-20 19:33N 38°29' W 009°18'6 6.4
2016-Jul-20 18:33N 38°24' W 009°13'6 6.0
2016-Jul-20 17:33N 38°26' W 009°07'0 0.0
2016-Jul-20 16:33N 38°26' W 009°07'0 0.0
2016-Jul-20 15:33N 38°26' W 009°07'6 6.1
2016-Jul-20 14:33N 38°22' W 009°11'7 7.1
2016-Jul-20 13:33N 38°17' W 009°18'7 6.9
2016-Jul-20 12:33N 38°13' W 009°26'7 7.3
2016-Jul-20 11:32N 38°09' W 009°34'7 7.4
2016-Jul-20 10:33N 38°05' W 009°41'33 6.6
2016-Jul-20 05:33N 37°42' W 010°12'7 6.6
2016-Jul-20 04:28N 37°37' W 010°18'7 6.5
2016-Jul-20 03:27N 37°33' W 010°24'7 6.4
2016-Jul-20 02:21N 37°27' W 010°29'14 6.4
2016-Jul-20 00:13N 37°17' W 010°41'7 6.3
2016-Jul-19 23:08N 37°11' W 010°46'5 6.4
2016-Jul-19 22:19N 37°07' W 010°50'14 6.2
2016-Jul-19 20:06N 36°57' W 011°01'183 4.5
2016-Jul-18 03:08N 34°39' W 013°30'17 6.6
2016-Jul-18 00:31N 34°26' W 013°43'16 6.7
2016-Jul-17 22:08N 34°14' W 013°56'31 3.1
2016-Jul-17 12:04N 33°51' W 014°22'0 0.8
2016-Jul-17 11:31N 33°51' W 014°22'4 1.9
2016-Jul-17 09:12N 33°47' W 014°25'1 1.0
2016-Jul-17 08:06N 33°46' W 014°26'5 0.2
2016-Jul-16 01:33N 33°42' W 014°24'1 0.9
2016-Jul-16 00:21N 33°42' W 014°23'  
Track history (hours):
 
Tides and Currents Weather Stations Pressure Air Temp Water Temp Dewpoint Dewpoint Depression Visibility Wind Speed Wind Dir Waves Ship Positions

Garcia Miguel

Last reported at 2016-Jul-25 11:33 UTC. Time now 2016-Jul-25 11:59 UTC.
Position N 37°59' W 010°22'.

Length 20 m.

Type: Fishing. MMSI: 263500286.

Date/timePositionNaut miles runAvg speedWind from/ knotsBaromVisibWave heightAir tempDewpointWater temp
2016-Jul-25 11:33N 37°59' W 010°22'11 7.6
2016-Jul-25 10:07N 38°09' W 010°15'4 7.3
2016-Jul-25 09:33N 38°13' W 010°12'8 7.5
2016-Jul-25 08:33N 38°19' W 010°08'7 7.0
2016-Jul-25 07:32N 38°25' W 010°04'7 7.0
2016-Jul-25 06:33N 38°32' W 009°60'7 7.3
2016-Jul-25 05:33N 38°38' W 009°54'7 6.9
2016-Jul-25 04:33N 38°43' W 009°49'7 7.1
2016-Jul-25 03:32N 38°50' W 009°45'9 7.7
2016-Jul-25 02:18N 38°58' W 009°39'  
2016-Jul-21 00:24N 38°59' W 009°29'6 7.4
2016-Jul-20 23:33N 38°53' W 009°31'8 7.3
2016-Jul-20 22:30N 38°46' W 009°33'7 6.9
2016-Jul-20 21:33N 38°40' W 009°30'7 7.3
2016-Jul-20 20:33N 38°35' W 009°23'7 6.9
2016-Jul-20 19:33N 38°29' W 009°18'6 6.4
2016-Jul-20 18:33N 38°24' W 009°13'6 6.0
2016-Jul-20 17:33N 38°26' W 009°07'0 0.0
2016-Jul-20 16:33N 38°26' W 009°07'0 0.0
2016-Jul-20 15:33N 38°26' W 009°07'6 6.1
2016-Jul-20 14:33N 38°22' W 009°11'7 7.1
2016-Jul-20 13:33N 38°17' W 009°18'7 6.9
2016-Jul-20 12:33N 38°13' W 009°26'7 7.3
2016-Jul-20 11:32N 38°09' W 009°34'7 7.4
2016-Jul-20 10:33N 38°05' W 009°41'33 6.6
2016-Jul-20 05:33N 37°42' W 010°12'7 6.6
2016-Jul-20 04:28N 37°37' W 010°18'7 6.5
2016-Jul-20 03:27N 37°33' W 010°24'7 6.4
2016-Jul-20 02:21N 37°27' W 010°29'14 6.4
2016-Jul-20 00:13N 37°17' W 010°41'7 6.3
2016-Jul-19 23:08N 37°11' W 010°46'5 6.4
2016-Jul-19 22:19N 37°07' W 010°50'14 6.2
2016-Jul-19 20:06N 36°57' W 011°01'183 4.5
2016-Jul-18 03:08N 34°39' W 013°30'17 6.6
2016-Jul-18 00:31N 34°26' W 013°43'16 6.7
2016-Jul-17 22:08N 34°14' W 013°56'31 3.1
2016-Jul-17 12:04N 33°51' W 014°22'0 0.8
2016-Jul-17 11:31N 33°51' W 014°22'4 1.9
2016-Jul-17 09:12N 33°47' W 014°25'1 1.0
2016-Jul-17 08:06N 33°46' W 014°26'5 0.2
2016-Jul-16 01:33N 33°42' W 014°24'1 0.9
2016-Jul-16 00:21N 33°42' W 014°23'  

Dump ship's entire track history